sensor_id;sensor_type;location;lat;lon;timestamp;P1;durP1;ratioP1;P2;durP2;ratioP2
12302;SDS011;6214;48.012;7.862;2022-09-03T00:01:49;5.07;;;1.90;;
12302;SDS011;6214;48.012;7.862;2022-09-03T00:07:14;6.07;;;1.90;;
12302;SDS011;6214;48.012;7.862;2022-09-03T00:09:47;4.82;;;1.90;;
12302;SDS011;6214;48.012;7.862;2022-09-03T00:12:37;4.22;;;1.80;;
12302;SDS011;6214;48.012;7.862;2022-09-03T00:15:08;5.20;;;2.00;;
12302;SDS011;6214;48.012;7.862;2022-09-03T00:17:58;4.68;;;2.42;;
12302;SDS011;6214;48.012;7.862;2022-09-03T00:20:50;4.60;;;2.00;;
12302;SDS011;6214;48.012;7.862;2022-09-03T00:23:26;4.70;;;1.90;;
12302;SDS011;6214;48.012;7.862;2022-09-03T00:28:41;4.72;;;2.20;;
12302;SDS011;6214;48.012;7.862;2022-09-03T00:33:54;5.00;;;2.00;;
12302;SDS011;6214;48.012;7.862;2022-09-03T00:36:27;4.47;;;2.17;;
12302;SDS011;6214;48.012;7.862;2022-09-03T00:38:57;4.10;;;1.83;;
12302;SDS011;6214;48.012;7.862;2022-09-03T00:49:46;4.50;;;2.10;;
12302;SDS011;6214;48.012;7.862;2022-09-03T01:00:42;5.00;;;2.00;;
12302;SDS011;6214;48.012;7.862;2022-09-03T01:03:21;4.50;;;2.10;;
12302;SDS011;6214;48.012;7.862;2022-09-03T01:11:25;5.43;;;2.00;;
12302;SDS011;6214;48.012;7.862;2022-09-03T01:22:16;4.47;;;2.13;;
12302;SDS011;6214;48.012;7.862;2022-09-03T01:27:38;4.60;;;2.20;;
12302;SDS011;6214;48.012;7.862;2022-09-03T01:30:20;4.45;;;1.90;;
12302;SDS011;6214;48.012;7.862;2022-09-03T01:40:41;5.00;;;2.20;;
12302;SDS011;6214;48.012;7.862;2022-09-03T01:45:53;4.40;;;2.10;;
12302;SDS011;6214;48.012;7.862;2022-09-03T01:51:28;4.15;;;1.90;;
12302;SDS011;6214;48.012;7.862;2022-09-03T01:57:07;5.15;;;2.08;;
12302;SDS011;6214;48.012;7.862;2022-09-03T02:00:07;4.57;;;2.07;;
12302;SDS011;6214;48.012;7.862;2022-09-03T02:02:39;5.18;;;2.22;;
12302;SDS011;6214;48.012;7.862;2022-09-03T02:05:12;4.63;;;2.00;;
12302;SDS011;6214;48.012;7.862;2022-09-03T02:07:48;4.57;;;1.90;;
12302;SDS011;6214;48.012;7.862;2022-09-03T02:10:19;4.70;;;1.95;;
12302;SDS011;6214;48.012;7.862;2022-09-03T02:13:00;5.90;;;2.45;;
12302;SDS011;6214;48.012;7.862;2022-09-03T02:15:31;7.13;;;2.20;;
12302;SDS011;6214;48.012;7.862;2022-09-03T02:18:01;4.93;;;2.10;;
12302;SDS011;6214;48.012;7.862;2022-09-03T02:20:30;4.77;;;2.10;;
12302;SDS011;6214;48.012;7.862;2022-09-03T02:22:58;5.07;;;2.00;;
12302;SDS011;6214;48.012;7.862;2022-09-03T02:25:28;4.10;;;1.80;;
12302;SDS011;6214;48.012;7.862;2022-09-03T02:27:59;4.72;;;1.80;;
12302;SDS011;6214;48.012;7.862;2022-09-03T02:30:26;4.20;;;1.60;;
12302;SDS011;6214;48.012;7.862;2022-09-03T02:32:53;4.63;;;1.58;;
12302;SDS011;6214;48.012;7.862;2022-09-03T02:35:20;4.70;;;1.60;;
12302;SDS011;6214;48.012;7.862;2022-09-03T02:37:47;4.70;;;1.73;;
12302;SDS011;6214;48.012;7.862;2022-09-03T02:40:14;4.50;;;1.70;;
12302;SDS011;6214;48.012;7.862;2022-09-03T02:42:41;4.50;;;1.90;;
12302;SDS011;6214;48.012;7.862;2022-09-03T02:45:27;4.38;;;1.60;;
12302;SDS011;6214;48.012;7.862;2022-09-03T02:47:55;4.20;;;1.60;;
12302;SDS011;6214;48.012;7.862;2022-09-03T02:50:25;3.80;;;1.50;;
12302;SDS011;6214;48.012;7.862;2022-09-03T02:52:52;3.77;;;1.60;;
12302;SDS011;6214;48.012;7.862;2022-09-03T02:55:19;4.20;;;2.00;;
12302;SDS011;6214;48.012;7.862;2022-09-03T02:57:46;4.80;;;2.10;;
12302;SDS011;6214;48.012;7.862;2022-09-03T03:00:13;3.97;;;1.80;;
12302;SDS011;6214;48.012;7.862;2022-09-03T03:02:40;4.00;;;1.60;;
12302;SDS011;6214;48.012;7.862;2022-09-03T03:05:08;4.40;;;1.70;;
12302;SDS011;6214;48.012;7.862;2022-09-03T03:07:42;4.25;;;1.90;;
12302;SDS011;6214;48.012;7.862;2022-09-03T03:10:09;4.00;;;1.60;;
12302;SDS011;6214;48.012;7.862;2022-09-03T03:12:37;4.00;;;1.73;;
12302;SDS011;6214;48.012;7.862;2022-09-03T03:15:05;5.47;;;1.70;;
12302;SDS011;6214;48.012;7.862;2022-09-03T03:17:32;5.93;;;1.85;;
12302;SDS011;6214;48.012;7.862;2022-09-03T03:19:59;5.18;;;1.80;;
12302;SDS011;6214;48.012;7.862;2022-09-03T03:22:26;4.43;;;1.85;;
12302;SDS011;6214;48.012;7.862;2022-09-03T03:24:53;4.00;;;1.60;;
12302;SDS011;6214;48.012;7.862;2022-09-03T03:27:22;4.60;;;1.70;;
12302;SDS011;6214;48.012;7.862;2022-09-03T03:29:49;4.10;;;1.90;;
12302;SDS011;6214;48.012;7.862;2022-09-03T03:32:16;4.53;;;1.90;;
12302;SDS011;6214;48.012;7.862;2022-09-03T03:34:42;4.35;;;1.70;;
12302;SDS011;6214;48.012;7.862;2022-09-03T03:37:09;5.00;;;2.00;;
12302;SDS011;6214;48.012;7.862;2022-09-03T03:39:36;4.40;;;1.63;;
12302;SDS011;6214;48.012;7.862;2022-09-03T03:42:03;4.20;;;1.60;;
12302;SDS011;6214;48.012;7.862;2022-09-03T03:44:30;4.80;;;1.90;;
12302;SDS011;6214;48.012;7.862;2022-09-03T03:46:57;4.00;;;1.70;;
12302;SDS011;6214;48.012;7.862;2022-09-03T03:49:24;4.55;;;1.85;;
12302;SDS011;6214;48.012;7.862;2022-09-03T03:51:51;4.60;;;2.00;;
12302;SDS011;6214;48.012;7.862;2022-09-03T03:54:17;5.40;;;1.80;;
12302;SDS011;6214;48.012;7.862;2022-09-03T03:56:44;4.30;;;1.90;;
12302;SDS011;6214;48.012;7.862;2022-09-03T03:59:20;4.20;;;1.90;;
12302;SDS011;6214;48.012;7.862;2022-09-03T04:01:47;4.28;;;1.70;;
12302;SDS011;6214;48.012;7.862;2022-09-03T04:04:15;4.90;;;1.73;;
12302;SDS011;6214;48.012;7.862;2022-09-03T04:06:42;4.50;;;1.93;;
12302;SDS011;6214;48.012;7.862;2022-09-03T04:09:09;5.32;;;2.10;;
12302;SDS011;6214;48.012;7.862;2022-09-03T04:11:36;5.38;;;1.80;;
12302;SDS011;6214;48.012;7.862;2022-09-03T04:14:04;4.80;;;1.80;;
12302;SDS011;6214;48.012;7.862;2022-09-03T04:16:31;5.85;;;1.83;;
12302;SDS011;6214;48.012;7.862;2022-09-03T04:18:58;6.10;;;1.80;;
12302;SDS011;6214;48.012;7.862;2022-09-03T04:21:26;4.60;;;1.60;;
12302;SDS011;6214;48.012;7.862;2022-09-03T04:23:55;4.60;;;1.60;;
12302;SDS011;6214;48.012;7.862;2022-09-03T04:26:24;4.20;;;1.70;;
12302;SDS011;6214;48.012;7.862;2022-09-03T04:28:57;4.30;;;1.70;;
12302;SDS011;6214;48.012;7.862;2022-09-03T04:31:26;3.93;;;1.60;;
12302;SDS011;6214;48.012;7.862;2022-09-03T04:33:53;4.85;;;2.20;;
12302;SDS011;6214;48.012;7.862;2022-09-03T04:36:21;4.07;;;1.80;;
12302;SDS011;6214;48.012;7.862;2022-09-03T04:38:50;4.20;;;1.60;;
12302;SDS011;6214;48.012;7.862;2022-09-03T04:41:25;4.07;;;1.80;;
12302;SDS011;6214;48.012;7.862;2022-09-03T04:43:54;4.38;;;1.80;;
12302;SDS011;6214;48.012;7.862;2022-09-03T04:46:23;4.13;;;1.70;;
12302;SDS011;6214;48.012;7.862;2022-09-03T04:48:52;4.38;;;1.70;;
12302;SDS011;6214;48.012;7.862;2022-09-03T04:51:24;4.80;;;1.70;;
12302;SDS011;6214;48.012;7.862;2022-09-03T04:53:53;4.00;;;1.70;;
12302;SDS011;6214;48.012;7.862;2022-09-03T04:56:23;4.00;;;1.80;;
12302;SDS011;6214;48.012;7.862;2022-09-03T04:58:53;4.20;;;2.00;;
12302;SDS011;6214;48.012;7.862;2022-09-03T05:01:27;4.40;;;2.00;;
12302;SDS011;6214;48.012;7.862;2022-09-03T05:03:56;4.20;;;1.80;;
12302;SDS011;6214;48.012;7.862;2022-09-03T05:06:24;4.40;;;1.75;;
12302;SDS011;6214;48.012;7.862;2022-09-03T05:08:52;5.25;;;1.92;;
12302;SDS011;6214;48.012;7.862;2022-09-03T05:11:21;4.83;;;1.70;;
12302;SDS011;6214;48.012;7.862;2022-09-03T05:13:50;4.65;;;1.80;;
12302;SDS011;6214;48.012;7.862;2022-09-03T05:16:19;4.20;;;1.80;;
12302;SDS011;6214;48.012;7.862;2022-09-03T05:18:47;4.47;;;1.85;;
12302;SDS011;6214;48.012;7.862;2022-09-03T05:21:18;4.77;;;1.80;;
12302;SDS011;6214;48.012;7.862;2022-09-03T05:23:45;4.22;;;1.90;;
12302;SDS011;6214;48.012;7.862;2022-09-03T05:26:22;4.60;;;1.80;;
12302;SDS011;6214;48.012;7.862;2022-09-03T05:28:53;4.70;;;1.90;;
12302;SDS011;6214;48.012;7.862;2022-09-03T05:31:25;4.20;;;1.80;;
12302;SDS011;6214;48.012;7.862;2022-09-03T05:33:55;3.97;;;1.80;;
12302;SDS011;6214;48.012;7.862;2022-09-03T05:36:25;4.40;;;2.00;;
12302;SDS011;6214;48.012;7.862;2022-09-03T05:38:53;4.00;;;1.60;;
12302;SDS011;6214;48.012;7.862;2022-09-03T05:41:21;3.90;;;1.70;;
12302;SDS011;6214;48.012;7.862;2022-09-03T05:43:49;4.90;;;1.70;;
12302;SDS011;6214;48.012;7.862;2022-09-03T05:46:21;4.10;;;1.70;;
12302;SDS011;6214;48.012;7.862;2022-09-03T05:48:52;4.50;;;1.70;;
12302;SDS011;6214;48.012;7.862;2022-09-03T05:51:19;4.15;;;1.70;;
12302;SDS011;6214;48.012;7.862;2022-09-03T05:53:47;4.55;;;1.95;;
12302;SDS011;6214;48.012;7.862;2022-09-03T05:56:18;4.50;;;2.17;;
12302;SDS011;6214;48.012;7.862;2022-09-03T05:58:53;4.38;;;2.00;;
12302;SDS011;6214;48.012;7.862;2022-09-03T06:01:26;4.75;;;1.90;;
12302;SDS011;6214;48.012;7.862;2022-09-03T06:06:30;4.80;;;1.80;;
12302;SDS011;6214;48.012;7.862;2022-09-03T06:08:59;4.50;;;1.85;;
12302;SDS011;6214;48.012;7.862;2022-09-03T06:11:28;4.60;;;1.95;;
12302;SDS011;6214;48.012;7.862;2022-09-03T06:13:56;5.15;;;1.90;;
12302;SDS011;6214;48.012;7.862;2022-09-03T06:16:27;4.60;;;2.00;;
12302;SDS011;6214;48.012;7.862;2022-09-03T06:18:57;4.00;;;1.90;;
12302;SDS011;6214;48.012;7.862;2022-09-03T06:21:25;4.93;;;1.80;;
12302;SDS011;6214;48.012;7.862;2022-09-03T06:23:53;4.72;;;2.00;;
12302;SDS011;6214;48.012;7.862;2022-09-03T06:26:25;4.50;;;1.83;;
12302;SDS011;6214;48.012;7.862;2022-09-03T06:28:54;5.40;;;2.47;;
12302;SDS011;6214;48.012;7.862;2022-09-03T06:31:22;5.30;;;2.20;;
12302;SDS011;6214;48.012;7.862;2022-09-03T06:33:50;5.22;;;2.00;;
12302;SDS011;6214;48.012;7.862;2022-09-03T06:36:21;4.63;;;1.90;;
12302;SDS011;6214;48.012;7.862;2022-09-03T06:38:53;4.65;;;1.90;;
12302;SDS011;6214;48.012;7.862;2022-09-03T06:41:25;4.10;;;1.87;;
12302;SDS011;6214;48.012;7.862;2022-09-03T06:43:59;4.20;;;1.93;;
12302;SDS011;6214;48.012;7.862;2022-09-03T06:46:32;4.53;;;2.00;;
12302;SDS011;6214;48.012;7.862;2022-09-03T06:49:01;4.30;;;2.00;;
12302;SDS011;6214;48.012;7.862;2022-09-03T06:51:29;5.50;;;2.03;;
12302;SDS011;6214;48.012;7.862;2022-09-03T06:54:00;4.70;;;1.93;;
12302;SDS011;6214;48.012;7.862;2022-09-03T06:56:29;5.28;;;2.10;;
12302;SDS011;6214;48.012;7.862;2022-09-03T06:59:06;4.20;;;2.10;;
12302;SDS011;6214;48.012;7.862;2022-09-03T07:01:40;5.10;;;2.20;;
12302;SDS011;6214;48.012;7.862;2022-09-03T07:04:11;5.30;;;2.15;;
12302;SDS011;6214;48.012;7.862;2022-09-03T07:06:41;5.20;;;1.80;;
12302;SDS011;6214;48.012;7.862;2022-09-03T07:09:10;4.67;;;2.10;;
12302;SDS011;6214;48.012;7.862;2022-09-03T07:11:38;5.18;;;2.10;;
12302;SDS011;6214;48.012;7.862;2022-09-03T07:14:13;5.07;;;2.10;;
12302;SDS011;6214;48.012;7.862;2022-09-03T07:16:40;4.63;;;2.20;;
12302;SDS011;6214;48.012;7.862;2022-09-03T07:19:08;4.28;;;2.17;;
12302;SDS011;6214;48.012;7.862;2022-09-03T07:21:35;5.30;;;2.00;;
12302;SDS011;6214;48.012;7.862;2022-09-03T07:24:03;4.18;;;2.10;;
12302;SDS011;6214;48.012;7.862;2022-09-03T07:26:40;4.30;;;1.90;;
12302;SDS011;6214;48.012;7.862;2022-09-03T07:29:13;5.47;;;2.20;;
12302;SDS011;6214;48.012;7.862;2022-09-03T07:31:45;4.10;;;1.98;;
12302;SDS011;6214;48.012;7.862;2022-09-03T07:34:12;5.05;;;2.20;;
12302;SDS011;6214;48.012;7.862;2022-09-03T07:36:44;5.10;;;1.90;;
12302;SDS011;6214;48.012;7.862;2022-09-03T07:39:14;4.25;;;1.90;;
12302;SDS011;6214;48.012;7.862;2022-09-03T07:41:43;4.35;;;2.03;;
12302;SDS011;6214;48.012;7.862;2022-09-03T07:44:14;5.00;;;2.10;;
12302;SDS011;6214;48.012;7.862;2022-09-03T07:46:45;4.70;;;1.95;;
12302;SDS011;6214;48.012;7.862;2022-09-03T07:49:13;5.15;;;1.92;;
12302;SDS011;6214;48.012;7.862;2022-09-03T07:51:40;4.38;;;1.80;;
12302;SDS011;6214;48.012;7.862;2022-09-03T07:54:08;4.00;;;1.50;;
12302;SDS011;6214;48.012;7.862;2022-09-03T07:56:38;4.90;;;1.90;;
12302;SDS011;6214;48.012;7.862;2022-09-03T07:59:06;4.05;;;1.63;;
12302;SDS011;6214;48.012;7.862;2022-09-03T08:01:34;5.60;;;2.20;;
12302;SDS011;6214;48.012;7.862;2022-09-03T08:04:03;4.80;;;1.85;;
12302;SDS011;6214;48.012;7.862;2022-09-03T08:06:34;4.10;;;1.60;;
12302;SDS011;6214;48.012;7.862;2022-09-03T08:09:04;4.90;;;1.80;;
12302;SDS011;6214;48.012;7.862;2022-09-03T08:11:32;5.03;;;2.08;;
12302;SDS011;6214;48.012;7.862;2022-09-03T08:14:03;5.22;;;1.83;;
12302;SDS011;6214;48.012;7.862;2022-09-03T08:16:34;4.00;;;1.70;;
12302;SDS011;6214;48.012;7.862;2022-09-03T08:19:02;4.30;;;1.70;;
12302;SDS011;6214;48.012;7.862;2022-09-03T08:21:30;4.10;;;1.70;;
12302;SDS011;6214;48.012;7.862;2022-09-03T08:23:57;4.20;;;1.67;;
12302;SDS011;6214;48.012;7.862;2022-09-03T08:26:36;4.80;;;1.90;;
12302;SDS011;6214;48.012;7.862;2022-09-03T08:29:04;4.45;;;1.73;;
12302;SDS011;6214;48.012;7.862;2022-09-03T08:31:32;3.95;;;1.60;;
12302;SDS011;6214;48.012;7.862;2022-09-03T08:34:00;4.50;;;1.70;;
12302;SDS011;6214;48.012;7.862;2022-09-03T08:36:30;4.28;;;1.90;;
12302;SDS011;6214;48.012;7.862;2022-09-03T08:38:59;4.00;;;2.00;;
12302;SDS011;6214;48.012;7.862;2022-09-03T08:41:40;4.10;;;1.70;;
12302;SDS011;6214;48.012;7.862;2022-09-03T08:57:54;4.70;;;1.90;;
12302;SDS011;6214;48.012;7.862;2022-09-03T09:00:28;4.10;;;1.80;;
12302;SDS011;6214;48.012;7.862;2022-09-03T09:19:45;4.82;;;2.10;;
12302;SDS011;6214;48.012;7.862;2022-09-03T09:22:38;4.85;;;1.80;;
12302;SDS011;6214;48.012;7.862;2022-09-03T09:25:17;6.00;;;2.20;;
12302;SDS011;6214;48.012;7.862;2022-09-03T09:28:00;5.10;;;2.28;;
12302;SDS011;6214;48.012;7.862;2022-09-03T09:30:29;6.95;;;2.13;;
12302;SDS011;6214;48.012;7.862;2022-09-03T09:32:58;5.18;;;2.20;;
12302;SDS011;6214;48.012;7.862;2022-09-03T09:35:26;4.97;;;2.05;;
12302;SDS011;6214;48.012;7.862;2022-09-03T09:37:54;4.97;;;2.00;;
12302;SDS011;6214;48.012;7.862;2022-09-03T09:40:32;4.80;;;2.22;;
12302;SDS011;6214;48.012;7.862;2022-09-03T09:43:17;4.00;;;1.87;;
12302;SDS011;6214;48.012;7.862;2022-09-03T09:45:47;4.20;;;1.25;;
12302;SDS011;6214;48.012;7.862;2022-09-03T09:48:25;4.50;;;1.60;;
12302;SDS011;6214;48.012;7.862;2022-09-03T09:51:06;4.00;;;1.60;;
12302;SDS011;6214;48.012;7.862;2022-09-03T09:53:34;5.60;;;1.77;;
12302;SDS011;6214;48.012;7.862;2022-09-03T09:56:02;5.10;;;1.98;;
12302;SDS011;6214;48.012;7.862;2022-09-03T09:58:29;4.07;;;1.80;;
12302;SDS011;6214;48.012;7.862;2022-09-03T10:03:50;5.20;;;2.40;;
12302;SDS011;6214;48.012;7.862;2022-09-03T10:06:27;4.93;;;2.22;;
12302;SDS011;6214;48.012;7.862;2022-09-03T10:09:15;5.10;;;2.20;;
12302;SDS011;6214;48.012;7.862;2022-09-03T10:12:07;6.22;;;2.42;;
12302;SDS011;6214;48.012;7.862;2022-09-03T10:15:27;5.25;;;2.28;;
12302;SDS011;6214;48.012;7.862;2022-09-03T10:23:21;5.10;;;1.70;;
12302;SDS011;6214;48.012;7.862;2022-09-03T10:26:00;4.65;;;1.50;;
12302;SDS011;6214;48.012;7.862;2022-09-03T10:28:36;5.00;;;1.70;;
12302;SDS011;6214;48.012;7.862;2022-09-03T10:33:52;4.80;;;1.50;;
12302;SDS011;6214;48.012;7.862;2022-09-03T10:36:49;5.17;;;1.50;;
12302;SDS011;6214;48.012;7.862;2022-09-03T10:39:24;4.13;;;1.30;;
12302;SDS011;6214;48.012;7.862;2022-09-03T10:47:42;3.80;;;1.30;;
12302;SDS011;6214;48.012;7.862;2022-09-03T10:50:33;5.00;;;1.40;;
12302;SDS011;6214;48.012;7.862;2022-09-03T10:53:29;3.70;;;1.20;;
12302;SDS011;6214;48.012;7.862;2022-09-03T11:07:42;3.72;;;0.82;;
12302;SDS011;6214;48.012;7.862;2022-09-03T11:10:21;3.95;;;0.90;;
12302;SDS011;6214;48.012;7.862;2022-09-03T11:13:13;4.30;;;1.00;;
12302;SDS011;6214;48.012;7.862;2022-09-03T11:15:48;4.60;;;1.00;;
12302;SDS011;6214;48.012;7.862;2022-09-03T11:18:21;3.50;;;0.93;;
12302;SDS011;6214;48.012;7.862;2022-09-03T11:20:55;3.70;;;0.90;;
12302;SDS011;6214;48.012;7.862;2022-09-03T11:23:26;3.40;;;0.90;;
12302;SDS011;6214;48.012;7.862;2022-09-03T11:25:57;3.90;;;1.20;;
12302;SDS011;6214;48.012;7.862;2022-09-03T11:34:48;3.90;;;1.02;;
12302;SDS011;6214;48.012;7.862;2022-09-03T11:42:39;4.20;;;1.10;;
12302;SDS011;6214;48.012;7.862;2022-09-03T11:45:59;3.63;;;1.00;;
12302;SDS011;6214;48.012;7.862;2022-09-03T11:47:58;3.92;;;1.02;;
12302;SDS011;6214;48.012;7.862;2022-09-03T11:50:25;3.60;;;0.95;;
12302;SDS011;6214;48.012;7.862;2022-09-03T11:53:06;3.40;;;0.80;;
12302;SDS011;6214;48.012;7.862;2022-09-03T11:58:30;3.20;;;0.70;;
12302;SDS011;6214;48.012;7.862;2022-09-03T12:01:00;3.40;;;0.60;;
12302;SDS011;6214;48.012;7.862;2022-09-03T12:03:38;3.80;;;1.10;;
12302;SDS011;6214;48.012;7.862;2022-09-03T12:06:36;3.42;;;0.77;;
12302;SDS011;6214;48.012;7.862;2022-09-03T12:20:13;3.63;;;0.70;;
12302;SDS011;6214;48.012;7.862;2022-09-03T12:22:41;3.10;;;0.60;;
12302;SDS011;6214;48.012;7.862;2022-09-03T12:25:12;3.42;;;0.70;;
12302;SDS011;6214;48.012;7.862;2022-09-03T12:27:41;4.07;;;0.75;;
12302;SDS011;6214;48.012;7.862;2022-09-03T12:30:17;4.70;;;0.80;;
12302;SDS011;6214;48.012;7.862;2022-09-03T12:32:47;3.87;;;0.60;;
12302;SDS011;6214;48.012;7.862;2022-09-03T12:35:18;3.63;;;0.70;;
12302;SDS011;6214;48.012;7.862;2022-09-03T12:38:07;3.70;;;0.80;;
12302;SDS011;6214;48.012;7.862;2022-09-03T12:40:41;3.50;;;0.80;;
12302;SDS011;6214;48.012;7.862;2022-09-03T12:43:28;3.60;;;0.80;;
12302;SDS011;6214;48.012;7.862;2022-09-03T12:46:15;3.50;;;0.90;;
12302;SDS011;6214;48.012;7.862;2022-09-03T12:48:53;3.40;;;0.70;;
12302;SDS011;6214;48.012;7.862;2022-09-03T12:51:41;4.63;;;1.00;;
12302;SDS011;6214;48.012;7.862;2022-09-03T12:54:20;3.80;;;0.80;;
12302;SDS011;6214;48.012;7.862;2022-09-03T12:56:50;4.03;;;0.90;;
12302;SDS011;6214;48.012;7.862;2022-09-03T12:59:21;3.20;;;0.68;;
12302;SDS011;6214;48.012;7.862;2022-09-03T13:01:52;3.30;;;0.60;;
12302;SDS011;6214;48.012;7.862;2022-09-03T13:04:24;3.70;;;0.60;;
12302;SDS011;6214;48.012;7.862;2022-09-03T13:07:01;3.80;;;0.70;;
12302;SDS011;6214;48.012;7.862;2022-09-03T13:09:48;3.85;;;0.90;;
12302;SDS011;6214;48.012;7.862;2022-09-03T13:12:19;3.80;;;1.10;;
12302;SDS011;6214;48.012;7.862;2022-09-03T13:14:48;3.60;;;0.90;;
12302;SDS011;6214;48.012;7.862;2022-09-03T13:20:35;3.60;;;0.70;;
12302;SDS011;6214;48.012;7.862;2022-09-03T13:23:29;4.20;;;0.80;;
12302;SDS011;6214;48.012;7.862;2022-09-03T13:26:28;3.40;;;0.80;;
12302;SDS011;6214;48.012;7.862;2022-09-03T13:35:37;3.20;;;0.60;;
12302;SDS011;6214;48.012;7.862;2022-09-03T13:41:00;3.20;;;0.60;;
12302;SDS011;6214;48.012;7.862;2022-09-03T13:43:36;3.45;;;0.70;;
12302;SDS011;6214;48.012;7.862;2022-09-03T13:46:10;3.50;;;0.70;;
12302;SDS011;6214;48.012;7.862;2022-09-03T13:48:45;3.45;;;0.90;;
12302;SDS011;6214;48.012;7.862;2022-09-03T13:51:41;3.80;;;0.90;;
12302;SDS011;6214;48.012;7.862;2022-09-03T13:54:25;3.50;;;0.70;;
12302;SDS011;6214;48.012;7.862;2022-09-03T14:00:21;3.57;;;0.80;;
12302;SDS011;6214;48.012;7.862;2022-09-03T14:06:04;3.60;;;0.70;;
12302;SDS011;6214;48.012;7.862;2022-09-03T14:09:05;3.88;;;0.90;;
12302;SDS011;6214;48.012;7.862;2022-09-03T14:11:59;3.80;;;0.70;;
12302;SDS011;6214;48.012;7.862;2022-09-03T14:20:07;3.33;;;0.88;;
12302;SDS011;6214;48.012;7.862;2022-09-03T14:22:44;3.28;;;0.80;;
12302;SDS011;6214;48.012;7.862;2022-09-03T14:25:14;3.30;;;0.80;;
12302;SDS011;6214;48.012;7.862;2022-09-03T14:27:45;3.35;;;0.80;;
12302;SDS011;6214;48.012;7.862;2022-09-03T14:49:52;3.63;;;1.10;;
12302;SDS011;6214;48.012;7.862;2022-09-03T14:52:35;4.03;;;1.10;;
12302;SDS011;6214;48.012;7.862;2022-09-03T15:00:41;4.50;;;1.20;;
12302;SDS011;6214;48.012;7.862;2022-09-03T15:06:16;3.90;;;1.10;;
12302;SDS011;6214;48.012;7.862;2022-09-03T15:11:42;4.40;;;1.70;;
12302;SDS011;6214;48.012;7.862;2022-09-03T15:17:34;3.80;;;1.37;;
12302;SDS011;6214;48.012;7.862;2022-09-03T15:20:16;3.92;;;1.42;;
12302;SDS011;6214;48.012;7.862;2022-09-03T15:22:56;4.10;;;1.40;;
12302;SDS011;6214;48.012;7.862;2022-09-03T15:28:28;3.70;;;1.33;;
12302;SDS011;6214;48.012;7.862;2022-09-03T15:31:14;4.00;;;1.50;;
12302;SDS011;6214;48.012;7.862;2022-09-03T15:33:49;4.10;;;1.30;;
12302;SDS011;6214;48.012;7.862;2022-09-03T15:36:42;3.70;;;1.20;;
12302;SDS011;6214;48.012;7.862;2022-09-03T15:39:19;3.83;;;1.27;;
12302;SDS011;6214;48.012;7.862;2022-09-03T15:41:52;3.60;;;1.40;;
12302;SDS011;6214;48.012;7.862;2022-09-03T15:44:47;4.30;;;1.30;;
12302;SDS011;6214;48.012;7.862;2022-09-03T15:50:36;3.90;;;1.30;;
12302;SDS011;6214;48.012;7.862;2022-09-03T15:59:22;3.80;;;1.30;;
12302;SDS011;6214;48.012;7.862;2022-09-03T16:07:25;3.90;;;1.20;;
12302;SDS011;6214;48.012;7.862;2022-09-03T16:15:35;4.45;;;1.40;;
12302;SDS011;6214;48.012;7.862;2022-09-03T16:21:02;3.95;;;1.40;;
12302;SDS011;6214;48.012;7.862;2022-09-03T16:23:51;3.70;;;1.30;;
12302;SDS011;6214;48.012;7.862;2022-09-03T16:26:35;4.20;;;1.65;;
12302;SDS011;6214;48.012;7.862;2022-09-03T16:29:13;4.20;;;1.60;;
12302;SDS011;6214;48.012;7.862;2022-09-03T16:37:13;3.85;;;1.50;;
12302;SDS011;6214;48.012;7.862;2022-09-03T16:51:54;3.90;;;1.50;;
12302;SDS011;6214;48.012;7.862;2022-09-03T16:57:33;4.50;;;1.30;;
12302;SDS011;6214;48.012;7.862;2022-09-03T17:00:16;3.70;;;1.30;;
12302;SDS011;6214;48.012;7.862;2022-09-03T17:06:00;4.07;;;1.40;;
12302;SDS011;6214;48.012;7.862;2022-09-03T17:14:01;4.30;;;1.47;;
12302;SDS011;6214;48.012;7.862;2022-09-03T17:20:04;4.00;;;1.50;;
12302;SDS011;6214;48.012;7.862;2022-09-03T17:26:08;4.30;;;1.75;;
12302;SDS011;6214;48.012;7.862;2022-09-03T17:36:56;4.30;;;1.63;;
12302;SDS011;6214;48.012;7.862;2022-09-03T17:39:46;4.63;;;1.80;;
12302;SDS011;6214;48.012;7.862;2022-09-03T17:42:45;4.78;;;1.50;;
12302;SDS011;6214;48.012;7.862;2022-09-03T17:48:10;4.25;;;1.40;;
12302;SDS011;6214;48.012;7.862;2022-09-03T17:50:52;4.70;;;1.85;;
12302;SDS011;6214;48.012;7.862;2022-09-03T17:53:21;4.40;;;1.70;;
12302;SDS011;6214;48.012;7.862;2022-09-03T17:55:56;4.40;;;1.90;;
12302;SDS011;6214;48.012;7.862;2022-09-03T17:58:28;5.20;;;1.80;;
12302;SDS011;6214;48.012;7.862;2022-09-03T18:01:10;4.80;;;1.80;;
12302;SDS011;6214;48.012;7.862;2022-09-03T18:03:59;4.45;;;1.77;;
12302;SDS011;6214;48.012;7.862;2022-09-03T18:09:11;4.80;;;1.70;;
12302;SDS011;6214;48.012;7.862;2022-09-03T18:14:22;3.97;;;1.65;;
12302;SDS011;6214;48.012;7.862;2022-09-03T18:17:00;5.10;;;1.98;;
12302;SDS011;6214;48.012;7.862;2022-09-03T18:19:45;3.83;;;1.55;;
12302;SDS011;6214;48.012;7.862;2022-09-03T18:22:45;4.07;;;1.70;;
12302;SDS011;6214;48.012;7.862;2022-09-03T18:25:49;3.80;;;1.50;;
12302;SDS011;6214;48.012;7.862;2022-09-03T18:28:49;4.00;;;1.70;;
12302;SDS011;6214;48.012;7.862;2022-09-03T18:31:42;4.78;;;1.70;;
12302;SDS011;6214;48.012;7.862;2022-09-03T18:34:30;4.25;;;1.70;;
12302;SDS011;6214;48.012;7.862;2022-09-03T18:37:18;5.38;;;2.38;;
12302;SDS011;6214;48.012;7.862;2022-09-03T18:40:06;5.43;;;2.83;;
12302;SDS011;6214;48.012;7.862;2022-09-03T18:46:00;5.60;;;3.08;;
12302;SDS011;6214;48.012;7.862;2022-09-03T18:49:26;5.82;;;2.40;;
12302;SDS011;6214;48.012;7.862;2022-09-03T18:52:26;5.85;;;2.60;;
12302;SDS011;6214;48.012;7.862;2022-09-03T18:55:40;4.60;;;2.40;;
12302;SDS011;6214;48.012;7.862;2022-09-03T19:01:46;4.72;;;2.00;;
12302;SDS011;6214;48.012;7.862;2022-09-03T19:08:08;5.40;;;2.25;;
12302;SDS011;6214;48.012;7.862;2022-09-03T19:11:06;4.80;;;2.10;;
12302;SDS011;6214;48.012;7.862;2022-09-03T19:13:52;4.50;;;2.20;;
12302;SDS011;6214;48.012;7.862;2022-09-03T19:16:47;6.30;;;2.20;;
12302;SDS011;6214;48.012;7.862;2022-09-03T19:20:06;5.65;;;2.05;;
12302;SDS011;6214;48.012;7.862;2022-09-03T19:23:04;4.80;;;1.90;;
12302;SDS011;6214;48.012;7.862;2022-09-03T19:25:50;5.65;;;2.20;;
12302;SDS011;6214;48.012;7.862;2022-09-03T19:28:39;5.40;;;2.10;;
12302;SDS011;6214;48.012;7.862;2022-09-03T19:31:37;5.50;;;1.90;;
12302;SDS011;6214;48.012;7.862;2022-09-03T19:35:16;6.90;;;1.83;;
12302;SDS011;6214;48.012;7.862;2022-09-03T19:46:44;5.30;;;1.70;;
12302;SDS011;6214;48.012;7.862;2022-09-03T19:53:07;5.40;;;1.90;;
12302;SDS011;6214;48.012;7.862;2022-09-03T19:58:46;4.18;;;1.70;;
12302;SDS011;6214;48.012;7.862;2022-09-03T20:01:38;4.35;;;1.73;;
12302;SDS011;6214;48.012;7.862;2022-09-03T20:04:32;4.30;;;2.08;;
12302;SDS011;6214;48.012;7.862;2022-09-03T20:07:29;4.20;;;1.70;;
12302;SDS011;6214;48.012;7.862;2022-09-03T20:10:17;4.90;;;1.85;;
12302;SDS011;6214;48.012;7.862;2022-09-03T20:20:54;4.50;;;2.20;;
12302;SDS011;6214;48.012;7.862;2022-09-03T20:23:37;5.00;;;2.10;;
12302;SDS011;6214;48.012;7.862;2022-09-03T20:29:01;5.03;;;2.08;;
12302;SDS011;6214;48.012;7.862;2022-09-03T20:34:21;4.45;;;2.20;;
12302;SDS011;6214;48.012;7.862;2022-09-03T20:37:10;5.13;;;2.20;;
12302;SDS011;6214;48.012;7.862;2022-09-03T20:40:05;4.70;;;2.20;;
12302;SDS011;6214;48.012;7.862;2022-09-03T20:48:55;4.40;;;1.90;;
12302;SDS011;6214;48.012;7.862;2022-09-03T20:51:35;5.00;;;2.00;;
12302;SDS011;6214;48.012;7.862;2022-09-03T20:54:31;6.40;;;2.40;;
12302;SDS011;6214;48.012;7.862;2022-09-03T20:57:19;4.50;;;2.00;;
12302;SDS011;6214;48.012;7.862;2022-09-03T21:00:10;5.60;;;1.92;;
12302;SDS011;6214;48.012;7.862;2022-09-03T21:05:42;4.40;;;1.90;;
12302;SDS011;6214;48.012;7.862;2022-09-03T21:16:49;4.90;;;1.75;;
12302;SDS011;6214;48.012;7.862;2022-09-03T21:22:03;5.80;;;1.60;;
12302;SDS011;6214;48.012;7.862;2022-09-03T21:25:00;5.15;;;2.00;;
12302;SDS011;6214;48.012;7.862;2022-09-03T21:27:36;7.50;;;2.00;;
12302;SDS011;6214;48.012;7.862;2022-09-03T21:30:07;4.73;;;1.70;;
12302;SDS011;6214;48.012;7.862;2022-09-03T21:35:22;4.10;;;1.70;;
12302;SDS011;6214;48.012;7.862;2022-09-03T21:40:34;5.25;;;2.00;;